Time;durP1;ratioP1;P1;durP2;ratioP2;P2;SDS_P1;SDS_P2;PMS_P1;PMS_P2;Temp;Humidity;BMP_temperature;BMP_pressure;BME280_temperature;BME280_humidity;BME280_pressure;Samples;Min_cycle;Max_cycle;Signal;HPM_P1;HPM_P2
2021/08/30 00:00:10;;;;;;;4.70;3.55;;;15.50;99.90;;;;;;5096499;28;20208;-76
2021/08/30 00:02:37;;;;;;;4.43;3.10;;;15.50;99.90;;;;;;5096099;28;20229;-76
2021/08/30 00:05:04;;;;;;;5.03;3.70;;;15.50;99.90;;;;;;5096277;28;20239;-76
2021/08/30 00:07:31;;;;;;;4.18;3.65;;;15.60;99.90;;;;;;5096300;28;20201;-76
2021/08/30 00:09:59;;;;;;;5.10;3.78;;;15.60;99.90;;;;;;5096306;28;20238;-76
2021/08/30 00:12:26;;;;;;;4.15;3.60;;;15.60;99.90;;;;;;5095962;28;20235;-76
2021/08/30 00:14:54;;;;;;;4.57;3.75;;;15.60;99.90;;;;;;5096151;28;20202;-76
2021/08/30 00:17:21;;;;;;;4.50;3.95;;;15.60;99.90;;;;;;5096214;28;20262;-76
2021/08/30 00:19:48;;;;;;;6.72;5.05;;;15.60;99.90;;;;;;5096123;28;20205;-76
2021/08/30 00:22:15;;;;;;;5.15;3.70;;;15.60;99.90;;;;;;5096402;28;20204;-76
2021/08/30 00:24:42;;;;;;;5.45;4.53;;;15.60;99.90;;;;;;5096078;28;20559;-76
2021/08/30 00:27:10;;;;;;;5.72;4.55;;;15.60;99.90;;;;;;5096406;28;20301;-76
2021/08/30 00:29:37;;;;;;;7.28;4.90;;;15.50;99.90;;;;;;5095920;28;20288;-76
2021/08/30 00:32:04;;;;;;;6.70;5.15;;;15.50;99.90;;;;;;5095735;28;20294;-76
2021/08/30 00:34:31;;;;;;;5.43;4.20;;;15.50;99.90;;;;;;5095521;28;20216;-76
2021/08/30 00:36:58;;;;;;;6.32;4.75;;;15.50;99.90;;;;;;5095675;28;20213;-76
2021/08/30 00:39:25;;;;;;;6.22;5.63;;;15.50;99.90;;;;;;5095766;28;20296;-76
2021/08/30 00:41:54;;;;;;;5.55;4.35;;;15.60;99.90;;;;;;5095597;28;20212;-76
2021/08/30 00:44:23;;;;;;;5.05;4.55;;;15.60;99.90;;;;;;5095562;28;20229;-76
2021/08/30 00:46:50;;;;;;;6.38;5.35;;;15.60;99.90;;;;;;5095436;28;20574;-76
2021/08/30 00:49:17;;;;;;;6.40;5.03;;;15.50;99.90;;;;;;5095449;28;20295;-76
2021/08/30 00:51:44;;;;;;;6.00;4.50;;;15.50;99.90;;;;;;5095556;28;20204;-76
2021/08/30 00:54:11;;;;;;;6.35;5.45;;;15.50;99.90;;;;;;5095451;28;20226;-76
2021/08/30 00:56:39;;;;;;;6.45;4.82;;;15.60;99.90;;;;;;5094130;28;20204;-76
2021/08/30 00:59:06;;;;;;;7.20;5.10;;;15.60;99.90;;;;;;5095353;28;20566;-76
2021/08/30 01:01:34;;;;;;;7.50;5.10;;;15.70;99.90;;;;;;5095257;28;20633;-76
2021/08/30 01:04:01;;;;;;;5.78;4.20;;;15.60;99.90;;;;;;5094858;28;20739;-76
2021/08/30 01:06:36;;;;;;;6.85;5.30;;;15.70;99.90;;;;;;5095051;28;20207;-76
2021/08/30 01:09:12;;;;;;;7.13;5.30;;;15.80;99.90;;;;;;5095095;28;20206;-75
2021/08/30 01:11:43;;;;;;;7.10;5.10;;;15.70;99.90;;;;;;5095041;28;20215;-75
2021/08/30 01:14:14;;;;;;;7.63;6.05;;;15.70;99.90;;;;;;5094823;28;20313;-76
2021/08/30 01:16:44;;;;;;;6.20;5.35;;;15.70;99.90;;;;;;5094911;28;20299;-76
2021/08/30 01:19:15;;;;;;;7.95;5.43;;;15.70;99.90;;;;;;5095001;28;20291;-76
2021/08/30 01:21:45;;;;;;;8.23;6.28;;;15.70;99.90;;;;;;5094983;28;20213;-76
2021/08/30 01:24:13;;;;;;;6.53;5.10;;;15.70;99.90;;;;;;5094812;28;20248;-76
2021/08/30 01:26:42;;;;;;;6.80;5.25;;;15.60;99.90;;;;;;5094434;28;20291;-76
2021/08/30 01:29:17;;;;;;;8.43;6.47;;;15.60;99.90;;;;;;5094783;28;20205;-76
2021/08/30 01:31:53;;;;;;;8.77;6.40;;;15.70;99.90;;;;;;5094592;28;20658;-76
2021/08/30 01:34:23;;;;;;;7.45;5.90;;;15.70;99.90;;;;;;5094714;28;20582;-76
2021/08/30 01:36:51;;;;;;;7.72;6.20;;;15.70;99.90;;;;;;5094463;28;20204;-76
2021/08/30 01:39:19;;;;;;;8.57;6.28;;;15.70;99.90;;;;;;5094542;28;20213;-76
2021/08/30 01:41:47;;;;;;;8.68;5.47;;;15.70;99.90;;;;;;5094375;28;20646;-76
2021/08/30 01:44:15;;;;;;;7.32;6.35;;;15.70;99.90;;;;;;5094366;28;20232;-76
2021/08/30 01:46:43;;;;;;;6.25;5.10;;;15.80;99.90;;;;;;5094323;28;20306;-76
2021/08/30 01:49:11;;;;;;;7.35;5.80;;;15.80;99.90;;;;;;5094427;28;20301;-76
2021/08/30 01:51:39;;;;;;;9.13;6.68;;;15.70;99.90;;;;;;5094283;28;20211;-76
2021/08/30 01:54:07;;;;;;;6.10;5.05;;;15.70;99.90;;;;;;5094321;28;20220;-75
2021/08/30 01:56:34;;;;;;;8.55;5.22;;;15.70;99.90;;;;;;5093943;28;20259;-76
2021/08/30 02:01:46;;;;;;;7.68;5.82;;;15.70;99.90;;;;;;5094247;28;20567;-75
2021/08/30 02:04:13;;;;;;;6.25;5.65;;;15.60;99.90;;;;;;5094026;28;20233;-76
2021/08/30 02:06:42;;;;;;;8.32;6.00;;;15.60;99.90;;;;;;5093730;28;20211;-76
2021/08/30 02:09:09;;;;;;;6.85;5.63;;;15.60;99.90;;;;;;5094098;28;20208;-76
2021/08/30 02:11:36;;;;;;;6.65;5.93;;;15.60;99.90;;;;;;5094165;28;20212;-76
2021/08/30 02:14:07;;;;;;;6.75;5.82;;;15.60;99.90;;;;;;5093707;28;20729;-76
2021/08/30 02:16:34;;;;;;;6.40;5.40;;;15.60;99.90;;;;;;5093630;28;20274;-76
2021/08/30 02:19:09;;;;;;;8.90;5.72;;;15.60;99.90;;;;;;5093992;28;20215;-76
2021/08/30 02:21:41;;;;;;;6.82;5.78;;;15.60;99.90;;;;;;5093985;28;20208;-76
2021/08/30 02:24:20;;;;;;;7.15;5.72;;;15.50;99.90;;;;;;5093531;28;20228;-76
2021/08/30 02:26:52;;;;;;;7.15;5.63;;;15.50;99.90;;;;;;5093702;28;20295;-75
2021/08/30 02:29:23;;;;;;;7.55;5.55;;;15.50;99.90;;;;;;5094107;28;20209;-76
2021/08/30 02:31:54;;;;;;;6.68;4.93;;;15.50;99.90;;;;;;5093837;28;20228;-76
2021/08/30 02:34:25;;;;;;;8.48;5.80;;;15.60;99.90;;;;;;5093802;28;20224;-76
2021/08/30 02:36:54;;;;;;;6.55;5.60;;;15.50;99.90;;;;;;5093631;28;20211;-76
2021/08/30 02:39:23;;;;;;;9.20;6.60;;;15.50;99.90;;;;;;5093745;28;20208;-76
2021/08/30 02:41:52;;;;;;;5.97;5.35;;;15.50;99.90;;;;;;5093568;28;20216;-76
2021/08/30 02:44:19;;;;;;;6.57;5.75;;;15.60;99.90;;;;;;5093593;28;20234;-76
2021/08/30 02:46:47;;;;;;;7.95;6.03;;;15.50;99.90;;;;;;5093496;28;20208;-76
2021/08/30 02:49:15;;;;;;;5.68;5.07;;;15.50;99.90;;;;;;5093640;28;20570;-76
2021/08/30 02:51:44;;;;;;;8.63;5.97;;;15.50;99.90;;;;;;5093805;28;20204;-76
2021/08/30 02:54:12;;;;;;;8.68;5.75;;;15.50;99.90;;;;;;5093396;28;20307;-76
2021/08/30 02:56:41;;;;;;;6.25;5.00;;;15.40;99.90;;;;;;5093382;28;20304;-76
2021/08/30 02:59:08;;;;;;;6.78;5.45;;;15.40;99.90;;;;;;5093338;28;20697;-76
2021/08/30 03:01:36;;;;;;;6.90;5.18;;;15.40;99.90;;;;;;5093352;28;20200;-76
2021/08/30 03:04:03;;;;;;;7.13;5.88;;;15.40;99.90;;;;;;5093420;28;20232;-76
2021/08/30 03:06:30;;;;;;;5.95;4.38;;;15.40;99.90;;;;;;5093040;28;20294;-76
2021/08/30 03:08:57;;;;;;;4.40;4.00;;;15.30;99.90;;;;;;5093170;28;20286;-76
2021/08/30 03:11:26;;;;;;;7.00;5.05;;;15.30;99.90;;;;;;5093201;28;20688;-76
2021/08/30 03:13:56;;;;;;;9.70;6.65;;;15.30;99.90;;;;;;5093396;28;20326;-76
2021/08/30 03:16:26;;;;;;;5.82;4.90;;;15.30;99.90;;;;;;5093249;28;20255;-76
2021/08/30 03:18:54;;;;;;;6.03;5.43;;;15.30;99.90;;;;;;5094119;28;20213;-76
2021/08/30 03:21:24;;;;;;;4.38;3.75;;;15.40;99.90;;;;;;5097164;28;20294;-76
2021/08/30 03:23:52;;;;;;;4.68;4.10;;;15.30;99.90;;;;;;5097172;28;20643;-76
2021/08/30 03:26:21;;;;;;;4.75;4.18;;;15.30;99.90;;;;;;5097017;28;20232;-76
2021/08/30 03:28:48;;;;;;;4.50;3.78;;;15.30;99.90;;;;;;5097108;28;20208;-76
2021/08/30 03:31:16;;;;;;;5.63;4.45;;;15.30;99.90;;;;;;5097040;28;20208;-76
2021/08/30 03:33:44;;;;;;;4.53;3.83;;;15.30;99.90;;;;;;5096932;28;20646;-76
2021/08/30 03:36:12;;;;;;;3.80;3.33;;;15.30;99.90;;;;;;5097041;28;20299;-75
2021/08/30 03:38:40;;;;;;;6.70;4.35;;;15.30;99.90;;;;;;5096909;28;20201;-76
2021/08/30 03:41:08;;;;;;;4.88;4.38;;;15.20;99.90;;;;;;5096736;28;20217;-75
2021/08/30 03:43:35;;;;;;;4.53;3.95;;;15.20;99.90;;;;;;5096572;28;20235;-75
2021/08/30 03:46:02;;;;;;;4.85;4.35;;;15.20;99.90;;;;;;5096626;28;20295;-75
2021/08/30 03:48:31;;;;;;;5.30;4.35;;;15.20;99.90;;;;;;5096669;28;20242;-76
2021/08/30 03:50:58;;;;;;;6.95;4.97;;;15.20;99.90;;;;;;5096660;28;20200;-76
2021/08/30 03:53:27;;;;;;;5.72;4.78;;;15.20;99.90;;;;;;5096630;28;20582;-75
2021/08/30 03:55:53;;;;;;;6.60;4.60;;;15.20;99.90;;;;;;5096185;28;20204;-75
2021/08/30 03:58:22;;;;;;;7.78;5.43;;;15.20;99.90;;;;;;5096477;28;20207;-76
2021/08/30 04:00:49;;;;;;;5.43;4.60;;;15.20;99.90;;;;;;5096418;28;20677;-75
2021/08/30 04:03:18;;;;;;;6.95;5.72;;;15.30;99.90;;;;;;5096815;28;20323;-76
2021/08/30 04:05:49;;;;;;;5.30;4.65;;;15.20;99.90;;;;;;5096245;28;20613;-76
2021/08/30 04:08:16;;;;;;;7.40;5.50;;;15.30;99.90;;;;;;5096303;28;20219;-76
2021/08/30 04:10:43;;;;;;;5.85;4.50;;;15.30;99.90;;;;;;5096361;28;20258;-76
2021/08/30 04:13:10;;;;;;;7.00;4.93;;;15.30;99.90;;;;;;5096062;28;20228;-76
2021/08/30 04:15:39;;;;;;;6.05;4.35;;;15.30;99.90;;;;;;5096067;28;20232;-76
2021/08/30 04:18:05;;;;;;;6.32;5.00;;;15.30;99.90;;;;;;5096198;28;20574;-76
2021/08/30 04:20:32;;;;;;;3.35;2.63;;;15.30;99.90;;;;;;5096179;28;20201;-75
2021/08/30 04:23:00;;;;;;;6.70;4.68;;;15.30;99.90;;;;;;5095848;28;20264;-76
2021/08/30 04:25:27;;;;;;;8.40;6.35;;;15.30;99.90;;;;;;5095828;28;20315;-76
2021/08/30 04:27:54;;;;;;;8.38;6.18;;;15.30;99.90;;;;;;5095924;28;20660;-76
2021/08/30 04:30:21;;;;;;;6.05;5.07;;;15.30;99.90;;;;;;5095517;28;20207;-76
2021/08/30 04:32:53;;;;;;;8.73;5.45;;;15.40;99.90;;;;;;5095741;28;20323;-76
2021/08/30 04:35:20;;;;;;;7.28;5.80;;;15.40;99.90;;;;;;5095573;28;20197;-76
2021/08/30 04:37:47;;;;;;;8.23;5.70;;;15.40;99.90;;;;;;5095731;28;20240;-76
2021/08/30 04:40:16;;;;;;;8.07;6.25;;;15.50;99.90;;;;;;5095583;28;20209;-76
2021/08/30 04:42:43;;;;;;;8.02;5.50;;;15.50;99.90;;;;;;5095373;28;20240;-75
2021/08/30 04:45:11;;;;;;;9.45;5.97;;;15.60;99.90;;;;;;5095512;28;20414;-76
2021/08/30 04:47:37;;;;;;;7.97;5.63;;;15.60;99.90;;;;;;5095607;28;20597;-76
2021/08/30 04:50:05;;;;;;;10.35;6.60;;;15.60;99.90;;;;;;5095563;28;20207;-76
2021/08/30 04:52:32;;;;;;;9.18;6.07;;;15.50;99.90;;;;;;5095591;28;20308;-76
2021/08/30 04:54:59;;;;;;;10.00;7.00;;;15.50;99.90;;;;;;5095309;28;20203;-76
2021/08/30 04:57:27;;;;;;;8.43;6.43;;;15.50;99.90;;;;;;5095424;28;20202;-76
2021/08/30 04:59:54;;;;;;;10.80;6.07;;;15.40;99.90;;;;;;5095380;28;20211;-76
2021/08/30 05:02:21;;;;;;;8.13;5.38;;;15.40;99.90;;;;;;5095245;28;20288;-76
2021/08/30 05:04:48;;;;;;;7.55;5.32;;;15.50;99.90;;;;;;5095268;28;20229;-76
2021/08/30 05:07:14;;;;;;;8.20;5.22;;;15.50;99.90;;;;;;5095229;28;20292;-76
2021/08/30 05:09:41;;;;;;;10.88;7.28;;;15.40;99.90;;;;;;5095133;28;20205;-77
2021/08/30 05:12:08;;;;;;;7.15;4.95;;;15.30;99.90;;;;;;5095061;28;20213;-76
2021/08/30 05:14:36;;;;;;;6.72;4.82;;;15.30;99.90;;;;;;5095146;28;20243;-77
2021/08/30 05:17:04;;;;;;;6.22;4.85;;;15.30;99.90;;;;;;5094745;28;20742;-76
2021/08/30 05:19:31;;;;;;;6.70;4.97;;;15.30;99.90;;;;;;5094990;28;20235;-76
2021/08/30 05:21:57;;;;;;;7.30;5.22;;;15.40;99.90;;;;;;5094904;28;20209;-76
2021/08/30 05:24:24;;;;;;;9.57;5.72;;;15.40;99.90;;;;;;5094501;28;20315;-76
2021/08/30 05:26:51;;;;;;;7.65;5.30;;;15.40;99.90;;;;;;5094681;28;20304;-76
2021/08/30 05:29:18;;;;;;;9.10;5.75;;;15.40;99.90;;;;;;5094750;28;20685;-76
2021/08/30 05:31:46;;;;;;;7.03;4.60;;;15.40;99.90;;;;;;5094756;28;20204;-76
2021/08/30 05:34:13;;;;;;;7.25;5.70;;;15.40;99.90;;;;;;5094709;28;20225;-76
2021/08/30 05:36:40;;;;;;;8.13;5.65;;;15.30;99.90;;;;;;5094166;28;20297;-76
2021/08/30 05:39:06;;;;;;;10.95;6.53;;;15.40;99.90;;;;;;5094580;28;20208;-76
2021/08/30 05:41:33;;;;;;;6.70;5.15;;;15.40;99.90;;;;;;5093676;28;20307;-76
2021/08/30 05:44:00;;;;;;;9.10;6.47;;;15.40;99.90;;;;;;5094432;28;20342;-76
2021/08/30 05:46:27;;;;;;;9.18;5.75;;;15.30;99.90;;;;;;5094355;28;20235;-76
2021/08/30 05:48:55;;;;;;;6.75;5.18;;;15.40;99.90;;;;;;5094759;28;20230;-76
2021/08/30 05:51:22;;;;;;;10.13;6.78;;;15.40;99.90;;;;;;5094394;28;20696;-76
2021/08/30 05:53:49;;;;;;;7.93;6.13;;;15.40;99.90;;;;;;5094384;28;20224;-76
2021/08/30 05:56:16;;;;;;;11.63;7.32;;;15.60;99.90;;;;;;5094162;28;20201;-76
2021/08/30 05:58:43;;;;;;;8.60;6.00;;;15.50;99.90;;;;;;5094301;28;20568;-76
2021/08/30 06:01:10;;;;;;;9.02;6.18;;;15.50;99.90;;;;;;5094252;28;20290;-76
2021/08/30 06:03:37;;;;;;;8.88;6.15;;;15.50;99.90;;;;;;5094146;28;20225;-76
2021/08/30 06:06:05;;;;;;;8.35;5.95;;;15.60;99.90;;;;;;5093670;28;20225;-76
2021/08/30 06:08:32;;;;;;;10.70;6.30;;;15.50;99.90;;;;;;5094180;28;20212;-76
2021/08/30 06:11:00;;;;;;;8.43;5.70;;;15.50;99.90;;;;;;5094129;28;20295;-76
2021/08/30 06:13:27;;;;;;;8.40;6.55;;;15.50;99.90;;;;;;5093862;28;20598;-76
2021/08/30 06:15:54;;;;;;;8.35;6.07;;;15.50;99.90;;;;;;5093928;28;20239;-76
2021/08/30 06:18:21;;;;;;;11.63;6.90;;;15.50;99.90;;;;;;5093900;28;20231;-76
2021/08/30 06:20:48;;;;;;;8.52;6.38;;;15.50;99.90;;;;;;5094639;28;20212;-76
2021/08/30 06:23:17;;;;;;;7.40;6.18;;;15.60;99.90;;;;;;5093965;28;20256;-76
2021/08/30 06:25:43;;;;;;;8.45;6.53;;;15.60;99.90;;;;;;5093533;28;20229;-77
2021/08/30 06:28:10;;;;;;;8.75;6.45;;;15.70;99.90;;;;;;5093844;28;20552;-76
2021/08/30 06:30:37;;;;;;;9.25;6.63;;;15.70;99.90;;;;;;5093847;28;20296;-76
2021/08/30 06:33:04;;;;;;;10.93;6.28;;;15.80;99.90;;;;;;5093936;28;20237;-77
2021/08/30 06:35:31;;;;;;;8.05;6.07;;;15.90;99.90;;;;;;5093350;28;20734;-77
2021/08/30 06:37:58;;;;;;;8.30;6.63;;;15.90;99.90;;;;;;5093735;28;20563;-76
2021/08/30 06:40:26;;;;;;;10.27;7.22;;;16.10;99.90;;;;;;5093410;28;20297;-77
2021/08/30 06:42:53;;;;;;;10.25;7.25;;;16.20;99.90;;;;;;5093372;28;20316;-77
2021/08/30 06:45:23;;;;;;;8.52;5.68;;;16.30;99.90;;;;;;5093646;28;20233;-77
2021/08/30 06:47:50;;;;;;;7.05;6.22;;;16.30;99.90;;;;;;5094725;28;20291;-77
2021/08/30 06:50:17;;;;;;;9.25;6.28;;;16.20;99.90;;;;;;5093916;28;20293;-77
2021/08/30 06:52:44;;;;;;;7.97;6.03;;;16.10;99.90;;;;;;5093557;28;20225;-77
2021/08/30 06:55:11;;;;;;;8.85;7.10;;;16.10;99.90;;;;;;5096357;28;20292;-77
2021/08/30 06:57:39;;;;;;;7.35;5.95;;;16.00;99.90;;;;;;5097728;28;20295;-77
2021/08/30 07:00:08;;;;;;;7.43;6.10;;;15.90;99.90;;;;;;5097652;28;20571;-76
2021/08/30 07:02:35;;;;;;;9.65;6.05;;;16.00;99.90;;;;;;5097532;28;20224;-76
2021/08/30 07:05:02;;;;;;;9.95;7.13;;;16.10;99.90;;;;;;5097439;28;20582;-76
2021/08/30 07:07:29;;;;;;;8.02;6.80;;;16.10;99.90;;;;;;5097537;28;20296;-77
2021/08/30 07:09:56;;;;;;;9.25;6.15;;;16.10;99.90;;;;;;5097441;28;20563;-76
2021/08/30 07:12:24;;;;;;;9.15;6.70;;;16.20;99.90;;;;;;5097378;28;20319;-76
2021/08/30 07:14:52;;;;;;;7.05;6.20;;;16.20;99.90;;;;;;5097245;28;20207;-76
2021/08/30 07:17:19;;;;;;;9.07;7.05;;;16.20;99.90;;;;;;5097385;28;20209;-76
2021/08/30 07:19:46;;;;;;;7.55;6.18;;;16.20;99.90;;;;;;5097184;28;20233;-77
2021/08/30 07:22:14;;;;;;;9.82;7.40;;;16.10;99.90;;;;;;5097201;28;20198;-77
2021/08/30 07:24:41;;;;;;;8.45;6.53;;;16.20;99.90;;;;;;5097178;28;20297;-77
2021/08/30 07:27:08;;;;;;;9.63;6.72;;;16.30;99.90;;;;;;5096996;28;20285;-77
2021/08/30 07:29:35;;;;;;;8.80;6.57;;;16.40;99.90;;;;;;5097428;28;20212;-77
2021/08/30 07:32:03;;;;;;;9.32;6.57;;;16.30;99.90;;;;;;5096936;28;20667;-77
2021/08/30 07:34:30;;;;;;;7.03;6.13;;;16.30;99.90;;;;;;5097076;28;20206;-77
2021/08/30 07:36:57;;;;;;;10.18;7.05;;;16.40;99.90;;;;;;5096740;28;20718;-77
2021/08/30 07:39:24;;;;;;;8.75;6.47;;;16.20;99.90;;;;;;5096956;28;20237;-77
2021/08/30 07:41:52;;;;;;;8.85;6.85;;;16.20;99.90;;;;;;5096520;28;20308;-77
2021/08/30 07:44:20;;;;;;;8.55;7.40;;;16.00;99.90;;;;;;5097266;28;20311;-77
2021/08/30 07:46:47;;;;;;;9.13;6.55;;;16.10;99.90;;;;;;5096567;28;20228;-77
2021/08/30 07:49:15;;;;;;;8.18;6.32;;;16.10;99.90;;;;;;5096795;28;20296;-77
2021/08/30 07:51:42;;;;;;;8.90;6.40;;;16.20;99.90;;;;;;5096713;28;20208;-77
2021/08/30 07:54:09;;;;;;;5.78;5.00;;;16.20;99.90;;;;;;5096643;28;20226;-76
2021/08/30 07:56:38;;;;;;;8.13;6.35;;;16.20;99.90;;;;;;5096275;28;20292;-76
2021/08/30 07:59:05;;;;;;;8.80;5.90;;;16.30;99.90;;;;;;5096595;28;20205;-76
2021/08/30 08:01:32;;;;;;;9.05;6.57;;;16.30;99.90;;;;;;5096374;28;20202;-77
2021/08/30 08:03:59;;;;;;;7.50;5.60;;;16.30;99.90;;;;;;5096446;28;20264;-77
2021/08/30 08:06:27;;;;;;;9.50;6.40;;;16.30;99.90;;;;;;5095570;28;20221;-77
2021/08/30 08:08:54;;;;;;;7.57;5.85;;;16.30;99.90;;;;;;5096379;28;20211;-76
2021/08/30 08:11:21;;;;;;;8.20;6.70;;;16.30;99.90;;;;;;5096568;28;20313;-77
2021/08/30 08:13:48;;;;;;;10.20;6.30;;;16.30;99.90;;;;;;5096323;28;20236;-76
2021/08/30 08:16:15;;;;;;;8.25;6.32;;;16.30;99.90;;;;;;5095934;28;20740;-77
2021/08/30 08:18:42;;;;;;;10.52;6.93;;;16.30;99.90;;;;;;5096194;28;20201;-77
2021/08/30 08:21:09;;;;;;;8.63;6.70;;;16.30;99.90;;;;;;5096109;28;20212;-77
2021/08/30 08:23:38;;;;;;;9.20;6.28;;;16.20;99.90;;;;;;5095796;28;20222;-77
2021/08/30 08:26:05;;;;;;;7.72;6.20;;;16.30;99.90;;;;;;5095639;28;20320;-77
2021/08/30 08:28:32;;;;;;;9.02;6.85;;;16.30;99.90;;;;;;5096023;28;20234;-77
2021/08/30 08:30:59;;;;;;;9.18;6.60;;;16.30;99.90;;;;;;5095999;28;20202;-77
2021/08/30 08:33:26;;;;;;;7.50;5.80;;;16.30;99.90;;;;;;5095922;28;20224;-77
2021/08/30 08:35:53;;;;;;;7.28;6.43;;;16.30;99.90;;;;;;5095709;28;20228;-77
2021/08/30 08:38:20;;;;;;;5.78;5.10;;;16.30;99.90;;;;;;5095863;28;20237;-77
2021/08/30 08:40:49;;;;;;;7.25;6.20;;;16.30;99.90;;;;;;5095685;28;20240;-77
2021/08/30 08:43:18;;;;;;;5.72;5.05;;;16.30;99.90;;;;;;5095602;28;20403;-77
2021/08/30 08:45:45;;;;;;;6.70;5.13;;;16.30;99.90;;;;;;5095470;28;20267;-77
2021/08/30 08:48:13;;;;;;;6.82;5.90;;;16.20;99.90;;;;;;5095538;28;20305;-77
2021/08/30 08:50:40;;;;;;;8.77;6.57;;;16.10;99.90;;;;;;5095607;28;20601;-77
2021/08/30 08:53:09;;;;;;;5.90;5.13;;;16.20;99.90;;;;;;5095553;28;20233;-77
2021/08/30 08:55:37;;;;;;;9.27;5.68;;;16.20;99.90;;;;;;5095229;28;20293;-77
2021/08/30 08:58:08;;;;;;;6.57;5.32;;;16.20;99.90;;;;;;5095443;28;20597;-77
2021/08/30 09:00:35;;;;;;;6.78;5.55;;;16.30;99.90;;;;;;5095430;28;20288;-77
2021/08/30 09:03:02;;;;;;;8.13;6.20;;;16.40;99.90;;;;;;5095538;28;20237;-77
2021/08/30 09:05:33;;;;;;;7.72;5.95;;;16.50;99.90;;;;;;5095086;28;20313;-77
2021/08/30 09:08:03;;;;;;;8.13;5.13;;;16.60;99.90;;;;;;5095075;28;20198;-77
2021/08/30 09:10:33;;;;;;;5.55;4.32;;;16.90;99.90;;;;;;5095183;28;20210;-77
2021/08/30 09:13:09;;;;;;;5.95;4.85;;;17.20;99.90;;;;;;5094902;28;20226;-77
2021/08/30 09:15:41;;;;;;;6.18;5.20;;;17.30;99.90;;;;;;5094896;28;20225;-77
2021/08/30 09:18:10;;;;;;;7.50;5.75;;;17.40;99.90;;;;;;5094371;28;20213;-77
2021/08/30 09:20:37;;;;;;;7.50;6.05;;;17.40;99.90;;;;;;5094830;28;20743;-77
2021/08/30 09:23:11;;;;;;;7.80;6.53;;;17.50;99.90;;;;;;5094859;28;20279;-77
2021/08/30 09:25:38;;;;;;;8.20;6.05;;;17.50;99.90;;;;;;5095000;28;20206;-78
2021/08/30 09:28:07;;;;;;;7.65;5.90;;;17.60;99.90;;;;;;5095120;28;20623;-77
2021/08/30 09:30:34;;;;;;;7.90;6.15;;;17.50;99.90;;;;;;5094728;28;20202;-77
2021/08/30 09:33:02;;;;;;;7.95;6.53;;;17.40;99.90;;;;;;5094660;28;20325;-77
2021/08/30 09:35:29;;;;;;;8.82;6.28;;;17.40;99.90;;;;;;5094567;28;20248;-77
2021/08/30 09:37:56;;;;;;;9.15;6.30;;;17.40;99.90;;;;;;5094680;28;20209;-77
2021/08/30 09:40:27;;;;;;;9.15;6.97;;;17.30;99.90;;;;;;5094599;28;20198;-78
2021/08/30 09:42:57;;;;;;;8.38;7.05;;;17.20;99.90;;;;;;5094641;28;20275;-77
2021/08/30 09:45:29;;;;;;;10.70;7.13;;;17.10;99.90;;;;;;5094234;28;20199;-77
2021/08/30 09:47:57;;;;;;;8.82;6.93;;;17.10;99.90;;;;;;5094395;28;20233;-77
2021/08/30 09:50:29;;;;;;;8.10;6.65;;;17.00;99.90;;;;;;5094467;28;20296;-77
2021/08/30 09:52:57;;;;;;;10.13;6.78;;;16.80;99.90;;;;;;5094298;28;20218;-77
2021/08/30 09:55:24;;;;;;;8.07;6.63;;;16.80;99.90;;;;;;5093978;28;20204;-77
2021/08/30 09:57:52;;;;;;;10.55;6.97;;;16.80;99.90;;;;;;5094315;28;20232;-77
2021/08/30 10:00:21;;;;;;;9.93;7.35;;;16.70;99.90;;;;;;5094290;28;20308;-77
2021/08/30 10:02:52;;;;;;;9.25;7.10;;;16.70;99.90;;;;;;5094087;28;20585;-77
2021/08/30 10:05:20;;;;;;;8.27;6.82;;;16.70;99.90;;;;;;5093991;28;20198;-77
2021/08/30 10:07:48;;;;;;;9.15;7.40;;;16.70;99.90;;;;;;5094141;28;20262;-77
2021/08/30 10:10:16;;;;;;;9.85;7.32;;;16.60;99.90;;;;;;5094131;28;20229;-77
2021/08/30 10:12:44;;;;;;;9.15;7.07;;;16.60;99.90;;;;;;5093858;28;20221;-77
2021/08/30 10:15:14;;;;;;;10.93;6.88;;;16.60;99.90;;;;;;5093930;28;20212;-77
2021/08/30 10:17:46;;;;;;;11.80;8.52;;;16.60;99.90;;;;;;5093952;28;20206;-77
2021/08/30 10:20:17;;;;;;;12.57;8.98;;;16.50;99.90;;;;;;5094012;28;20231;-76
2021/08/30 10:22:56;;;;;;;10.02;7.30;;;16.50;99.90;;;;;;5094137;28;20226;-76
2021/08/30 10:25:23;;;;;;;10.35;8.20;;;16.50;99.90;;;;;;5093457;28;20635;-77
2021/08/30 10:27:56;;;;;;;11.52;7.78;;;16.40;99.90;;;;;;5093528;28;20288;-76
2021/08/30 10:30:24;;;;;;;12.90;9.32;;;16.40;99.90;;;;;;5093788;28;20290;-76
2021/08/30 10:32:55;;;;;;;11.32;9.05;;;16.30;99.90;;;;;;5093840;28;20225;-76
2021/08/30 10:35:25;;;;;;;10.30;8.18;;;16.20;99.90;;;;;;5093421;28;20782;-77
2021/08/30 10:37:56;;;;;;;12.15;8.63;;;16.30;99.90;;;;;;5093618;28;20213;-76
2021/08/30 10:40:24;;;;;;;12.07;8.52;;;16.40;99.90;;;;;;5093751;28;20233;-76
2021/08/30 10:43:02;;;;;;;12.35;8.30;;;16.50;99.90;;;;;;5093531;28;20603;-77
2021/08/30 10:45:34;;;;;;;11.02;7.90;;;16.50;99.90;;;;;;5093268;28;20686;-77
2021/08/30 10:48:04;;;;;;;12.80;8.60;;;16.50;99.90;;;;;;5093669;28;20202;-76
2021/08/30 10:50:38;;;;;;;12.55;9.05;;;16.50;99.90;;;;;;5093608;28;20210;-77
2021/08/30 10:53:06;;;;;;;12.75;9.00;;;16.50;99.90;;;;;;5093579;28;20558;-76
2021/08/30 10:55:39;;;;;;;8.60;6.88;;;16.50;99.90;;;;;;5093133;28;20237;-76
2021/08/30 10:58:15;;;;;;;9.65;7.20;;;16.50;99.90;;;;;;5093579;28;20198;-76
2021/08/30 11:00:42;;;;;;;10.52;7.68;;;16.50;99.90;;;;;;5093756;28;20204;-77
2021/08/30 11:03:09;;;;;;;11.20;8.00;;;16.40;99.90;;;;;;5093485;28;20228;-77
2021/08/30 11:05:39;;;;;;;10.85;7.78;;;16.40;99.90;;;;;;5093328;28;20236;-76
2021/08/30 11:08:06;;;;;;;11.45;8.32;;;16.40;99.90;;;;;;5093456;28;20201;-76
2021/08/30 11:10:33;;;;;;;11.07;7.68;;;16.40;99.90;;;;;;5093455;28;20231;-77
2021/08/30 11:13:00;;;;;;;9.63;7.30;;;16.30;99.90;;;;;;5093318;28;20582;-77
2021/08/30 11:15:32;;;;;;;12.07;8.02;;;16.30;99.90;;;;;;5093306;28;20548;-76
2021/08/30 11:18:00;;;;;;;10.43;8.02;;;16.40;99.90;;;;;;5093396;28;20622;-77
2021/08/30 11:20:27;;;;;;;8.25;6.90;;;16.50;99.90;;;;;;5093329;28;20208;-76
2021/08/30 11:22:56;;;;;;;9.30;6.82;;;16.60;99.90;;;;;;5093068;28;20316;-77
2021/08/30 11:25:23;;;;;;;9.38;6.50;;;16.80;99.90;;;;;;5093172;28;20296;-76
2021/08/30 11:27:50;;;;;;;8.98;6.63;;;16.80;99.90;;;;;;5093303;28;20575;-76
2021/08/30 11:30:20;;;;;;;9.70;7.20;;;16.80;99.90;;;;;;5093297;28;20208;-76
2021/08/30 11:32:50;;;;;;;9.98;6.63;;;16.80;99.90;;;;;;5093329;28;20226;-76
2021/08/30 11:35:17;;;;;;;9.25;7.35;;;17.00;99.90;;;;;;5093100;28;20563;-76
2021/08/30 11:37:44;;;;;;;9.55;7.20;;;17.10;99.90;;;;;;5093451;28;20289;-77
2021/08/30 11:40:15;;;;;;;11.65;7.32;;;16.90;99.90;;;;;;5094560;28;20202;-77
2021/08/30 11:42:43;;;;;;;6.70;5.38;;;17.00;99.90;;;;;;5096708;28;20230;-77
2021/08/30 11:45:12;;;;;;;8.35;6.55;;;17.10;99.90;;;;;;5096455;28;20683;-76
2021/08/30 11:47:40;;;;;;;10.10;6.55;;;17.10;99.90;;;;;;5096677;28;20644;-77
2021/08/30 11:50:09;;;;;;;10.57;7.53;;;17.10;99.90;;;;;;5096810;28;20204;-77
2021/08/30 11:52:39;;;;;;;9.25;7.13;;;17.10;99.90;;;;;;5096674;28;20222;-77
2021/08/30 11:55:08;;;;;;;9.43;6.70;;;17.00;99.90;;;;;;5096569;28;20199;-77
2021/08/30 11:57:42;;;;;;;11.00;7.60;;;17.10;99.90;;;;;;5096622;28;20197;-76
2021/08/30 12:00:12;;;;;;;10.57;7.95;;;16.90;99.90;;;;;;5096617;28;20644;-77
2021/08/30 12:02:39;;;;;;;11.18;8.50;;;16.80;99.90;;;;;;5096366;28;20233;-77
2021/08/30 12:05:08;;;;;;;11.55;8.70;;;16.70;99.90;;;;;;5096099;28;20686;-77
2021/08/30 12:07:36;;;;;;;11.95;8.95;;;16.70;99.90;;;;;;5096334;28;20261;-76
2021/08/30 12:10:05;;;;;;;10.48;7.70;;;16.80;99.90;;;;;;5096359;28;20204;-76
2021/08/30 12:12:35;;;;;;;10.73;9.10;;;16.90;99.90;;;;;;5096258;28;20692;-77
2021/08/30 12:15:06;;;;;;;11.63;8.25;;;16.70;99.90;;;;;;5096191;28;20212;-77
2021/08/30 12:17:35;;;;;;;11.93;7.72;;;16.50;99.90;;;;;;5096278;28;20212;-77
2021/08/30 12:20:07;;;;;;;11.60;8.60;;;16.50;99.90;;;;;;5096237;28;20228;-77
2021/08/30 12:22:36;;;;;;;8.73;6.88;;;16.50;99.90;;;;;;5096152;28;20236;-77
2021/08/30 12:25:10;;;;;;;10.48;6.88;;;16.50;99.90;;;;;;5096204;28;20211;-77
2021/08/30 12:27:39;;;;;;;10.00;8.10;;;16.60;99.90;;;;;;5096016;28;20235;-77
2021/08/30 12:30:19;;;;;;;11.25;7.97;;;16.80;99.90;;;;;;5096075;28;20735;-77
2021/08/30 12:32:48;;;;;;;12.35;9.05;;;16.90;99.90;;;;;;5095854;28;20256;-77
2021/08/30 12:35:20;;;;;;;9.65;7.32;;;16.80;99.90;;;;;;5095784;28;20212;-76
2021/08/30 12:37:47;;;;;;;10.60;8.65;;;16.70;99.90;;;;;;5095985;28;20208;-77
2021/08/30 12:40:15;;;;;;;10.93;7.50;;;16.60;99.90;;;;;;5095617;28;20205;-77
2021/08/30 12:42:43;;;;;;;10.48;7.90;;;16.50;99.90;;;;;;5095633;28;20245;-77
2021/08/30 12:45:12;;;;;;;10.77;7.50;;;16.60;99.90;;;;;;5095541;28;20576;-77
2021/08/30 12:47:40;;;;;;;9.23;7.60;;;16.60;99.90;;;;;;5095594;28;20553;-77
2021/08/30 12:50:08;;;;;;;9.18;7.82;;;16.80;99.90;;;;;;5095568;28;20225;-77
2021/08/30 12:52:35;;;;;;;10.25;7.38;;;17.00;99.90;;;;;;5095113;28;20305;-77